WOLFEBORO: From 11/25/2019 13:00 to 12/10/2019 00:00

Date PRECIPITATION INCREMENT [IN] AIR TEMPERATURE [DEGF] RELATIVE HUMIDITY [%] BAROMETRIC PRESSURE [INHG] AVERAGE WIND SPEED [FT/S] MAXIMUM WIND SPEED [FT/S] MINIMUM WIND SPEED [FT/S] AVERAGE WIND DIRECTION [] MAXIMUM WIND DIRECTION [] MINIMUM WIND DIRECTION []
12/09/2019 12:00 0.05 -- -- 29.45 0.00 1.67 0.00 0.0 0.0 0.0
12/09/2019 11:00 0.00 40.0 71.9 29.50 0.00 0.25 0.00 0.0 0.0 0.0
12/09/2019 10:00 0.00 39.0 71.1 29.52 0.00 0.50 0.00 0.0 0.0 0.0
12/09/2019 09:00 0.00 38.0 70.2 29.53 0.00 1.25 0.00 0.0 0.0 0.0
12/09/2019 08:00 0.00 36.0 69.7 29.55 0.25 3.50 0.00 0.0 23.0 0.0
12/09/2019 07:00 0.00 39.0 68.9 29.55 1.25 7.25 0.00 0.3 63.0 0.0
12/09/2019 06:00 0.00 38.0 66.9 29.55 1.50 7.75 0.00 0.3 44.3 0.0
12/09/2019 05:00 0.00 38.0 66.2 29.56 1.25 7.25 0.00 0.0 49.3 0.0
12/09/2019 04:00 0.00 37.0 66.2 29.56 2.50 9.50 0.00 0.0 50.5 0.0
12/09/2019 03:00 0.00 36.0 63.6 29.57 2.50 9.25 0.00 0.3 59.8 0.0
12/09/2019 02:00 0.00 35.0 63.3 29.58 1.50 7.75 0.00 0.0 37.8 0.0
12/09/2019 01:00 0.00 34.0 61.1 29.59 2.75 10.50 0.00 0.0 49.0 0.0
12/09/2019 00:00 0.00 32.0 58.6 29.61 3.00 12.50 0.00 0.0 33.0 0.0
12/08/2019 23:00 0.00 31.0 53.7 29.63 2.00 9.25 0.00 0.0 48.0 0.0
12/08/2019 22:00 0.00 30.0 43.5 29.64 1.50 7.00 0.00 0.0 56.3 0.0
12/08/2019 21:00 0.00 30.0 37.1 29.66 1.00 7.00 0.00 0.0 58.3 0.0
12/08/2019 20:00 0.00 29.0 25.8 29.67 0.75 7.50 0.00 0.0 51.5 0.0
12/08/2019 19:00 0.00 29.0 16.6 29.68 0.50 6.25 0.00 0.0 31.8 0.0
12/08/2019 18:00 0.00 30.0 15.4 29.69 0.75 6.75 0.00 0.5 52.0 0.0
12/08/2019 17:00 0.00 30.0 12.7 29.71 1.00 6.50 0.00 0.5 68.5 0.0
12/08/2019 16:00 0.00 31.0 11.4 29.72 1.25 8.00 0.00 0.0 52.5 0.0
12/08/2019 15:00 0.00 32.0 9.2 29.72 1.75 8.25 0.00 0.5 89.0 0.0
12/08/2019 14:00 0.00 34.0 5.6 29.72 2.00 9.75 0.00 0.0 32.3 0.0
12/08/2019 13:00 0.00 31.0 8.4 29.75 2.00 8.25 0.00 0.3 61.5 0.0
12/08/2019 12:00 0.00 29.0 16.9 29.78 1.00 5.00 0.00 0.3 63.0 0.0
12/08/2019 11:00 0.00 25.0 42.2 29.81 1.00 4.25 0.00 0.5 73.0 0.0
12/08/2019 10:00 0.00 23.0 53.6 29.82 0.00 2.75 0.00 0.5 96.0 0.0
12/08/2019 09:00 0.00 20.0 63.2 29.81 0.00 1.00 0.00 0.0 0.0 0.0
12/08/2019 08:00 0.00 15.0 64.8 29.82 0.00 2.50 0.00 0.0 32.5 0.0
12/08/2019 07:00 0.00 15.0 66.1 29.82 0.00 1.50 0.00 0.0 3.5 0.0
12/08/2019 06:00 0.00 14.0 70.5 29.80 0.00 1.00 0.00 0.0 0.0 0.0
12/08/2019 05:00 0.00 15.0 64.4 29.79 0.50 4.50 0.00 0.0 19.0 0.0
12/08/2019 04:00 0.00 17.0 65.5 29.78 0.00 3.25 0.00 0.3 27.0 0.0
12/08/2019 03:00 0.00 19.0 61.2 29.78 0.00 3.50 0.00 0.0 19.0 0.0
12/08/2019 02:00 0.00 20.0 58.2 29.77 1.75 9.75 0.00 0.0 27.0 0.0
12/08/2019 01:00 0.00 20.0 57.2 29.76 2.50 11.00 0.00 0.0 50.0 0.0
12/08/2019 00:00 0.00 20.0 59.3 29.76 2.00 9.00 0.00 0.0 51.0 0.0
12/07/2019 23:00 0.00 21.0 56.3 29.76 1.25 8.50 0.00 0.0 38.0 0.0
12/07/2019 22:00 0.00 21.0 53.3 29.75 1.00 6.50 0.00 0.0 23.8 0.0
12/07/2019 21:00 0.00 20.0 55.8 29.75 0.00 2.75 0.00 0.0 10.3 0.0
12/07/2019 20:00 0.00 21.0 55.0 29.73 0.00 3.00 0.00 0.0 41.5 0.0
12/07/2019 19:00 0.00 22.0 50.9 29.71 1.00 9.25 0.00 0.5 72.3 0.0
12/07/2019 18:00 0.00 24.0 45.4 29.70 1.25 9.75 0.00 0.0 38.3 0.0
12/07/2019 17:00 0.00 24.0 48.8 29.67 1.75 8.50 0.00 0.0 46.3 0.0
12/07/2019 16:00 0.00 26.0 38.8 29.66 3.00 11.50 0.00 0.0 26.5 0.0
12/07/2019 15:00 0.00 26.0 32.1 29.64 2.75 12.25 0.00 0.0 36.0 0.0
12/07/2019 14:00 0.00 27.0 39.5 29.61 4.25 13.50 0.00 0.5 53.8 0.0
12/07/2019 13:00 0.00 27.0 39.7 29.61 4.25 13.50 0.00 0.0 45.8 0.0
12/07/2019 12:00 0.00 27.0 38.7 29.61 4.50 14.50 0.00 0.0 45.8 0.0
12/07/2019 11:00 0.00 25.0 44.9 29.61 4.00 14.25 0.00 0.0 35.0 0.0
12/07/2019 10:00 0.00 24.0 47.9 29.61 3.25 12.50 0.00 0.0 45.3 0.0
12/07/2019 09:00 0.00 24.0 50.6 29.59 2.00 10.50 0.00 0.0 54.8 0.0
12/07/2019 08:00 0.00 22.0 54.6 29.57 3.25 11.50 0.00 0.0 50.3 0.0
12/07/2019 07:00 0.00 22.0 58.3 29.55 2.00 10.75 0.00 0.0 45.3 0.0
12/07/2019 06:00 0.00 22.0 56.5 29.52 2.00 11.00 0.00 0.0 49.0 0.0
12/07/2019 05:00 0.00 22.0 56.0 29.49 2.25 11.50 0.00 0.0 53.3 0.0
12/07/2019 04:00 0.00 23.0 55.6 29.47 2.25 13.00 0.00 0.3 64.0 0.0
12/07/2019 03:00 0.00 23.0 56.5 29.45 3.00 12.25 0.00 0.0 54.3 0.0
12/07/2019 02:00 0.00 24.0 54.9 29.43 3.25 14.25 0.00 0.0 50.3 0.0
12/07/2019 01:00 0.00 25.0 56.5 29.40 4.00 15.75 0.00 0.0 41.0 0.0
12/07/2019 00:00 0.00 27.0 67.9 29.39 1.50 9.50 0.00 0.0 18.3 0.0
12/06/2019 23:00 0.00 27.0 78.7 29.36 0.25 2.25 0.00 0.0 18.5 0.0
12/06/2019 22:00 0.00 25.0 77.2 29.34 0.00 0.00 0.00 0.0 0.0 0.0
12/06/2019 21:00 0.00 28.0 77.2 29.32 0.00 0.00 0.00 0.0 0.0 0.0
12/06/2019 20:00 0.00 28.0 77.7 29.30 0.50 3.00 0.00 0.0 0.0 0.0
12/06/2019 19:00 0.01 29.0 77.9 29.29 0.00 0.00 0.00 0.0 0.0 0.0
12/06/2019 18:00 0.02 29.0 77.0 29.29 0.00 0.00 0.00 0.0 0.0 0.0
12/06/2019 17:00 0.01 29.0 76.3 29.29 0.00 0.00 0.00 0.0 0.0 0.0
12/06/2019 16:00 0.01 30.0 74.4 29.30 0.00 1.00 0.00 0.0 0.8 0.0
12/06/2019 15:00 0.00 29.0 72.0 29.31 0.75 6.50 0.00 0.0 52.5 0.0
12/06/2019 14:00 0.00 31.0 46.3 29.30 2.00 8.00 0.00 0.5 70.0 0.0
12/06/2019 13:00 0.00 31.0 40.4 29.31 2.75 9.50 0.00 0.3 59.8 0.0
12/06/2019 12:00 0.00 30.0 37.7 29.33 3.25 11.50 0.00 0.3 46.0 0.0
12/06/2019 11:00 0.00 29.0 40.9 29.35 4.00 12.25 0.00 0.8 70.5 0.0
12/06/2019 10:00 0.00 28.0 43.8 29.36 3.75 13.00 0.00 0.5 67.8 0.0
12/06/2019 09:00 0.00 27.0 48.7 29.36 5.50 16.25 0.00 0.0 56.3 0.0
12/06/2019 08:00 0.00 26.0 49.7 29.36 4.25 15.25 0.00 0.0 45.3 0.0
12/06/2019 07:00 0.00 25.0 51.0 29.35 4.50 15.25 0.00 0.0 49.3 0.0
12/06/2019 06:00 0.00 25.0 48.0 29.34 5.00 19.25 0.00 0.0 62.5 0.0
12/06/2019 05:00 0.00 25.0 47.8 29.32 5.75 20.00 0.00 0.0 45.3 0.0
12/06/2019 04:00 0.00 25.0 47.0 29.32 6.00 20.25 0.00 0.0 43.3 0.0
12/06/2019 03:00 0.00 25.0 43.5 29.30 5.25 18.75 0.00 0.0 42.0 0.0
12/06/2019 02:00 0.00 26.0 41.6 29.28 5.00 18.75 0.00 0.0 41.8 0.0
12/06/2019 01:00 0.00 26.0 42.4 29.26 7.00 23.00 0.00 0.0 28.0 0.0
12/06/2019 00:00 0.00 27.0 39.5 29.24 6.25 22.25 0.00 0.3 75.8 0.0
12/05/2019 23:00 0.00 27.0 41.7 29.23 6.00 20.75 0.00 0.0 33.8 0.0
12/05/2019 22:00 0.00 29.0 39.5 29.20 5.75 20.25 0.00 0.0 40.5 0.0
12/05/2019 21:00 0.00 31.0 45.5 29.16 4.00 17.25 0.00 0.0 50.5 0.0
12/05/2019 20:00 0.00 32.0 45.9 29.14 3.25 13.75 0.00 0.0 41.8 0.0
12/05/2019 19:00 0.00 32.0 54.3 29.11 5.00 17.00 0.00 0.0 48.5 0.0
12/05/2019 18:00 0.00 33.0 47.1 29.07 6.50 19.50 0.00 0.0 49.0 0.0
12/05/2019 17:00 0.00 33.0 54.3 29.03 7.75 20.75 0.00 0.0 43.5 0.0
12/05/2019 16:00 0.00 37.0 46.7 28.99 2.25 11.75 0.00 0.3 63.5 0.0
12/05/2019 15:00 0.00 38.0 47.6 28.96 2.50 11.25 0.00 0.0 37.8 0.0
12/05/2019 14:00 0.00 38.0 47.9 28.93 3.25 14.50 0.00 0.0 43.3 0.0
12/05/2019 13:00 0.00 39.0 46.1 28.92 3.50 12.25 0.00 0.3 50.5 0.0
12/05/2019 12:00 0.00 39.0 51.8 28.91 4.25 13.00 0.00 0.0 49.3 0.0
12/05/2019 11:00 0.00 36.0 61.2 28.91 2.75 10.75 0.00 0.0 43.3 0.0
12/05/2019 10:00 0.00 36.0 62.3 28.91 3.00 10.75 0.00 0.0 39.0 0.0
12/05/2019 09:00 0.00 35.0 66.4 28.89 1.25 7.75 0.00 0.0 38.8 0.0
12/05/2019 08:00 0.00 28.0 75.7 28.88 0.00 0.25 0.00 0.0 5.8 0.0
12/05/2019 07:00 0.00 25.0 76.8 28.86 0.00 1.50 0.00 0.0 0.0 0.0
12/05/2019 06:00 0.00 24.0 77.3 28.84 0.00 0.00 0.00 0.0 0.0 0.0
12/05/2019 05:00 0.00 25.0 77.9 28.82 0.00 0.00 0.00 0.0 0.0 0.0
12/05/2019 04:00 0.00 25.0 78.7 28.80 0.00 0.75 0.00 0.0 0.0 0.0
12/05/2019 03:00 0.00 26.0 77.9 28.80 0.00 0.00 0.00 0.0 0.0 0.0
12/05/2019 02:00 0.00 27.0 77.3 28.79 0.00 0.00 0.00 0.0 0.8 0.0
12/05/2019 01:00 0.00 28.0 76.4 28.79 0.00 0.00 0.00 0.0 0.0 0.0
12/05/2019 00:00 0.00 28.0 76.0 28.79 0.00 0.00 0.00 0.0 0.0 0.0
12/04/2019 23:00 0.00 29.0 75.0 28.80 0.00 0.00 0.00 0.0 0.0 0.0
12/04/2019 22:00 0.00 30.0 72.0 28.80 0.00 0.00 0.00 0.0 0.0 0.0
12/04/2019 21:00 0.00 30.0 69.7 28.81 0.00 0.00 0.00 0.0 17.3 0.0
12/04/2019 20:00 0.00 31.0 67.9 28.81 0.00 0.00 0.00 0.0 0.0 0.0
12/04/2019 19:00 0.00 31.0 66.8 28.80 0.00 0.00 0.00 0.0 0.0 0.0
12/04/2019 18:00 0.00 31.0 65.8 28.79 0.00 0.00 0.00 0.0 0.0 0.0
12/04/2019 17:00 0.00 33.0 60.0 28.79 0.00 0.00 0.00 0.0 0.0 0.0
12/04/2019 16:00 0.00 36.0 53.2 28.79 0.00 2.25 0.00 0.3 43.0 0.0
12/04/2019 15:00 0.00 36.0 49.7 28.79 1.25 7.25 0.00 1.3 73.8 0.0
12/04/2019 14:00 0.00 36.0 47.0 28.78 1.00 6.75 0.00 0.3 58.5 0.0
12/04/2019 13:00 0.00 35.0 46.0 28.79 2.75 9.50 0.00 0.0 47.5 0.0
12/04/2019 12:00 0.00 34.0 49.4 28.81 3.00 9.75 0.00 0.8 55.3 0.0
12/04/2019 11:00 0.00 34.0 42.5 28.82 3.25 10.75 0.00 0.0 58.8 0.0
12/04/2019 10:00 0.00 33.0 34.7 28.83 2.25 8.00 0.00 0.0 57.3 0.0
12/04/2019 09:00 0.00 32.0 30.1 28.82 1.25 8.00 0.00 0.3 65.0 0.0
12/04/2019 08:00 0.00 31.0 33.4 28.81 1.00 5.75 0.00 1.3 74.3 0.0
12/04/2019 07:00 0.00 30.0 37.0 28.81 1.75 8.75 0.00 0.3 68.0 0.0
12/04/2019 06:00 0.00 30.0 40.4 28.81 5.75 16.50 0.00 0.0 57.8 0.0
12/04/2019 05:00 0.00 29.0 45.1 28.79 3.25 13.50 0.00 0.0 51.5 0.0
12/04/2019 04:00 0.00 28.0 49.1 28.78 3.25 14.25 0.00 0.8 80.5 0.0
12/04/2019 03:00 0.00 27.0 52.3 28.77 4.25 16.75 0.00 0.0 49.3 0.0
12/04/2019 02:00 0.00 28.0 51.6 28.77 4.50 15.25 0.00 0.0 57.0 0.0
12/04/2019 01:00 0.00 29.0 51.4 28.75 4.50 17.00 0.00 0.0 46.5 0.0
12/04/2019 00:00 0.00 28.0 48.4 28.74 3.75 13.00 0.00 0.0 39.3 0.0
12/03/2019 23:00 0.00 29.0 48.8 28.73 3.50 12.25 0.00 0.0 51.5 0.0
12/03/2019 22:00 0.00 28.0 53.7 28.72 2.25 10.50 0.00 0.0 33.5 0.0
12/03/2019 21:00 0.01 29.0 52.5 28.71 2.25 11.75 0.00 0.0 35.0 0.0
12/03/2019 20:00 0.00 29.0 51.4 28.72 3.75 13.50 0.00 0.3 70.0 0.0
12/03/2019 19:00 0.00 30.0 52.9 28.72 2.00 12.00 0.00 0.0 39.3 0.0
12/03/2019 18:00 -- 30.0 51.7 -- -- -- -- -- -- --
12/03/2019 17:00 0.01 29.0 56.5 28.70 5.33 16.33 0.00 0.0 21.3 0.0
12/03/2019 16:00 0.00 29.0 55.7 28.68 4.50 14.75 0.00 0.0 12.5 0.0
12/03/2019 15:00 0.02 29.0 69.0 28.66 4.25 14.00 0.00 0.0 21.8 0.0
12/03/2019 14:00 0.03 30.0 74.8 28.64 2.75 13.25 0.00 0.0 28.8 0.0
12/03/2019 13:00 0.03 29.0 78.8 28.63 2.00 12.25 0.00 0.0 32.3 0.0
12/03/2019 12:00 0.03 31.0 78.7 28.65 1.00 6.50 0.00 0.0 30.0 0.0
12/03/2019 11:00 0.03 30.0 79.6 28.68 1.25 6.75 0.00 0.0 31.0 0.0
12/03/2019 10:00 0.04 30.0 78.7 28.71 0.00 0.25 0.00 0.0 28.8 0.0
12/03/2019 09:00 0.02 30.0 77.9 28.73 0.00 1.00 0.00 0.3 13.5 0.0
12/03/2019 08:00 0.01 31.0 74.7 28.75 0.25 1.75 0.00 0.3 20.3 0.0
12/03/2019 07:00 0.00 30.0 72.2 28.77 4.25 13.00 0.00 0.0 0.0 0.0
12/03/2019 06:00 0.00 29.0 70.3 28.79 8.75 20.25 0.25 0.0 0.0 0.0
12/03/2019 05:00 0.00 28.0 70.4 28.82 6.25 14.25 0.00 0.0 0.0 0.0
12/03/2019 04:00 0.00 28.0 66.3 28.84 7.00 20.00 0.00 0.0 0.0 0.0
12/03/2019 03:00 0.00 27.0 74.3 28.89 6.75 18.75 0.00 0.0 8.3 0.0
12/03/2019 02:00 0.00 28.0 61.7 28.90 8.75 22.00 0.00 0.0 0.0 0.0
12/03/2019 01:00 0.00 27.0 63.0 28.91 9.50 21.00 0.25 0.0 0.0 0.0
12/03/2019 00:00 0.00 30.0 40.1 28.94 10.25 25.75 0.00 0.0 0.3 0.0
12/02/2019 23:00 0.00 31.0 20.1 28.95 9.25 24.25 0.00 0.0 0.0 0.0
12/02/2019 22:00 0.00 31.0 17.9 28.96 9.75 23.00 0.00 0.0 0.0 0.0
12/02/2019 21:00 0.01 30.0 37.5 28.98 12.75 29.00 0.25 0.0 0.0 0.0
12/02/2019 20:00 0.00 31.0 23.6 29.01 10.25 25.00 0.00 0.0 0.0 0.0
12/02/2019 19:00 0.00 31.0 19.1 29.01 8.75 21.25 0.00 0.0 0.0 0.0
12/02/2019 18:00 -- 31.0 14.1 -- -- -- -- -- -- --
12/02/2019 17:00 0.00 31.0 20.5 29.02 5.33 15.33 0.00 0.0 0.0 0.0
12/02/2019 16:00 0.00 31.0 24.7 29.02 8.00 20.75 0.00 0.0 0.0 0.0
12/02/2019 15:00 0.00 31.0 31.6 29.02 9.50 22.50 0.00 0.0 0.0 0.0
12/02/2019 14:00 0.00 32.0 37.8 29.03 9.75 25.50 0.00 0.0 0.0 0.0
12/02/2019 13:00 0.00 31.0 42.0 29.05 10.75 26.00 0.00 0.0 0.0 0.0
12/02/2019 12:00 0.00 30.0 47.9 29.07 10.25 24.75 0.00 0.0 0.3 0.0
12/02/2019 11:00 0.00 29.0 58.3 29.09 9.75 25.25 0.00 0.0 0.0 0.0
12/02/2019 10:00 0.00 28.0 66.1 29.10 8.00 20.50 0.00 0.0 0.0 0.0
12/02/2019 09:00 0.00 27.0 68.5 29.11 7.00 17.50 0.00 0.0 0.5 0.0
12/02/2019 08:00 0.00 27.0 70.8 29.09 7.00 21.25 0.00 0.0 0.0 0.0
12/02/2019 07:00 0.00 26.0 74.3 29.09 8.75 23.25 0.00 0.0 0.0 0.0
12/02/2019 06:00 0.00 26.0 76.1 29.08 8.75 21.75 0.00 0.0 0.0 0.0
12/02/2019 05:00 0.00 26.0 74.9 29.09 8.50 23.75 0.00 0.0 0.8 0.0
12/02/2019 04:00 0.00 25.0 76.2 29.11 7.00 18.75 0.00 0.0 0.0 0.0
12/02/2019 03:00 0.00 25.0 75.6 29.14 4.75 14.00 0.00 0.0 0.0 0.0
12/02/2019 02:00 0.00 24.0 77.1 29.16 7.25 17.25 0.00 0.0 0.0 0.0
12/02/2019 01:00 0.00 24.0 78.2 29.18 6.75 17.25 0.00 0.0 0.0 0.0
12/02/2019 00:00 0.00 24.0 75.7 29.20 6.75 15.75 0.00 0.0 0.0 0.0
12/01/2019 23:00 0.00 24.0 74.2 29.21 7.00 17.00 0.00 0.0 0.0 0.0
12/01/2019 22:00 0.00 25.1 65.6 29.21 7.00 17.00 0.00 0.0 0.0 0.0
12/01/2019 21:00 0.00 26.3 57.0 29.21 7.00 17.00 0.00 0.0 0.0 0.0
12/01/2019 20:00 0.00 27.4 48.4 29.21 7.00 17.00 0.00 0.0 0.0 0.0
12/01/2019 19:00 0.00 28.6 39.7 29.21 7.00 17.00 0.00 0.0 0.0 0.0
12/01/2019 18:00 0.00 29.7 31.1 29.21 7.00 17.00 0.00 0.0 0.0 0.0
12/01/2019 17:00 0.00 30.9 22.5 29.21 7.00 17.00 0.00 0.0 0.0 0.0
12/01/2019 16:00 0.00 32.0 13.9 29.31 0.00 1.00 0.00 0.0 0.0 0.0
12/01/2019 15:00 0.00 32.0 13.9 29.29 1.25 4.50 0.00 0.0 0.0 0.0
12/01/2019 14:00 0.00 34.0 13.2 29.29 0.00 2.00 0.00 0.0 0.0 0.0
12/01/2019 13:00 0.00 32.0 20.1 29.30 0.00 0.00 0.00 0.0 0.0 0.0
12/01/2019 12:00 0.00 31.6 20.7 29.30 0.00 0.00 0.00 0.0 0.0 0.0
12/01/2019 11:00 0.00 31.3 21.3 29.30 0.00 0.00 0.00 0.0 0.0 0.0
12/01/2019 10:00 0.00 30.9 21.9 29.30 0.00 0.00 0.00 0.0 0.0 0.0
12/01/2019 09:00 0.00 30.5 22.5 29.30 0.00 0.00 0.00 0.0 0.0 0.0
12/01/2019 08:00 0.00 30.2 23.1 29.30 0.00 0.00 0.00 0.0 0.0 0.0
12/01/2019 07:00 0.00 29.8 23.7 29.30 0.00 0.00 0.00 0.0 0.0 0.0
12/01/2019 06:00 0.00 29.4 24.3 29.30 0.00 0.00 0.00 0.0 0.0 0.0
12/01/2019 05:00 0.00 29.1 24.9 29.30 0.00 0.00 0.00 0.0 0.0 0.0
12/01/2019 04:00 0.00 28.7 25.5 29.30 0.00 0.00 0.00 0.0 0.0 0.0
12/01/2019 03:00 0.00 28.3 26.1 29.30 0.00 0.00 0.00 0.0 0.0 0.0
12/01/2019 02:00 0.00 28.0 26.7 29.30 0.00 0.00 0.00 0.0 0.0 0.0
12/01/2019 01:00 0.00 27.6 27.3 29.30 0.00 0.00 0.00 0.0 0.0 0.0
12/01/2019 00:00 0.00 27.2 27.9 29.30 0.00 0.00 0.00 0.0 0.0 0.0
11/30/2019 23:00 0.00 26.9 28.5 29.30 0.00 0.00 0.00 0.0 0.0 0.0
11/30/2019 22:00 0.00 26.5 29.1 29.30 0.00 0.00 0.00 0.0 0.0 0.0
11/30/2019 21:00 0.00 26.1 29.7 29.30 0.00 0.00 0.00 0.0 0.0 0.0
11/30/2019 20:00 0.00 25.8 30.3 29.30 0.00 0.00 0.00 0.0 0.0 0.0
11/30/2019 19:00 0.00 25.4 30.9 29.30 0.00 0.00 0.00 0.0 0.0 0.0
11/30/2019 18:00 0.00 25.0 31.5 29.30 0.00 0.00 0.00 0.0 0.0 0.0
11/30/2019 17:00 0.00 24.7 32.1 29.30 0.00 0.00 0.00 0.0 0.0 0.0
11/30/2019 16:00 0.00 24.3 32.7 29.30 0.00 0.00 0.00 0.0 0.0 0.0
11/30/2019 15:00 0.00 23.9 33.3 29.30 0.00 0.00 0.00 0.0 0.0 0.0
11/30/2019 14:00 0.00 23.6 33.9 29.30 0.00 0.00 0.00 0.0 0.0 0.0
11/30/2019 13:00 0.00 23.2 34.5 29.30 0.00 0.00 0.00 0.0 0.0 0.0
11/30/2019 12:00 0.00 22.8 35.1 29.30 0.00 0.00 0.00 0.0 0.0 0.0
11/30/2019 11:00 0.00 22.5 35.7 29.30 0.00 0.00 0.00 0.0 0.0 0.0
11/30/2019 10:00 0.00 22.1 36.3 29.30 0.00 0.00 0.00 0.0 0.0 0.0
11/30/2019 09:00 0.00 21.7 36.9 29.30 0.00 0.00 0.00 0.0 0.0 0.0
11/30/2019 08:00 0.00 21.4 37.5 29.30 0.00 0.00 0.00 0.0 0.0 0.0
11/30/2019 07:00 0.00 21.0 38.1 29.31 4.33 16.00 0.00 0.0 40.7 0.0
11/30/2019 06:00 0.00 21.0 37.8 29.30 4.00 16.00 0.00 0.0 33.7 0.0
11/30/2019 05:00 0.00 22.0 41.8 29.30 4.67 16.67 0.00 0.0 60.3 0.0
11/30/2019 04:00 0.00 22.0 43.2 29.31 6.00 18.25 0.00 0.0 41.0 0.0
11/30/2019 03:00 0.00 22.0 42.8 29.32 5.00 16.00 0.00 0.0 40.8 0.0
11/30/2019 02:00 0.00 23.0 41.7 29.32 5.75 19.00 0.00 0.0 42.3 0.0
11/30/2019 01:00 0.00 23.0 43.9 29.31 5.00 18.75 0.00 0.0 41.3 0.0
11/30/2019 00:00 0.00 23.0 39.1 29.34 5.25 18.50 0.00 0.0 33.0 0.0
11/29/2019 23:00 0.00 24.0 35.0 29.36 5.50 20.00 0.00 0.0 43.3 0.0
11/29/2019 22:00 0.00 24.0 39.6 29.38 3.50 16.00 0.00 0.0 20.8 0.0
11/29/2019 21:00 0.00 25.0 38.6 29.39 2.25 11.50 0.00 0.0 54.8 0.0
11/29/2019 20:00 0.00 27.0 43.3 29.39 2.50 13.25 0.00 0.0 33.5 0.0
11/29/2019 19:00 0.00 27.0 47.7 29.41 3.25 13.25 0.00 0.0 54.5 0.0
11/29/2019 18:00 0.00 29.0 42.8 29.41 3.25 15.50 0.00 0.0 39.5 0.0
11/29/2019 17:00 0.00 30.0 44.8 29.41 5.50 16.50 0.00 0.0 44.5 0.0
11/29/2019 16:00 0.00 31.0 40.5 29.41 5.00 19.75 0.00 0.0 40.5 0.0
11/29/2019 15:00 0.00 33.0 37.5 29.41 6.00 20.25 0.00 0.0 46.0 0.0
11/29/2019 14:00 0.00 36.0 33.6 29.41 5.25 16.00 0.00 0.0 23.5 0.0
11/29/2019 13:00 0.00 34.0 42.4 29.43 6.75 18.25 0.00 0.0 35.8 0.0
11/29/2019 12:00 0.00 35.0 44.2 29.43 6.25 20.50 0.00 0.0 29.0 0.0
11/29/2019 11:00 0.00 35.0 46.1 29.45 4.75 15.25 0.00 0.0 25.5 0.0
11/29/2019 10:00 0.00 34.0 48.7 29.45 3.50 12.00 0.00 0.0 41.5 0.0
11/29/2019 09:00 0.00 32.0 54.7 29.46 2.75 11.50 0.00 0.0 36.8 0.0
11/29/2019 08:00 0.00 30.0 57.1 29.48 2.00 9.50 0.00 0.0 45.5 0.0
11/29/2019 07:00 0.00 29.0 63.2 29.47 2.50 11.50 0.00 0.0 38.8 0.0
11/29/2019 06:00 0.00 30.0 62.8 29.46 2.25 11.50 0.00 0.0 35.3 0.0
11/29/2019 05:00 0.00 30.0 65.8 29.45 2.00 10.50 0.00 0.3 46.5 0.0
11/29/2019 04:00 0.00 30.0 64.9 29.44 1.50 9.50 0.00 0.0 39.3 0.0
11/29/2019 03:00 0.00 31.0 64.0 29.45 1.75 9.25 0.00 0.0 38.8 0.0
11/29/2019 02:00 0.00 31.0 61.2 29.45 2.00 9.25 0.00 0.0 41.5 0.0
11/29/2019 01:00 0.00 31.0 61.4 29.44 1.75 9.50 0.00 0.0 38.8 0.0
11/29/2019 00:00 0.00 31.0 61.5 29.44 3.00 12.50 0.00 0.0 38.0 0.0
11/28/2019 23:00 0.00 31.0 62.8 29.43 3.00 12.00 0.00 0.0 26.0 0.0
11/28/2019 22:00 0.00 32.0 58.4 29.42 3.50 15.00 0.00 0.0 37.8 0.0
11/28/2019 21:00 0.00 32.0 60.3 29.40 3.75 14.50 0.00 0.0 27.8 0.0
11/28/2019 20:00 0.00 32.0 62.5 29.37 4.50 16.00 0.00 0.0 29.0 0.0
11/28/2019 19:00 0.00 33.0 61.2 29.35 2.25 11.75 0.00 0.0 36.5 0.0
11/28/2019 18:00 0.00 34.0 61.0 29.32 2.00 11.50 0.00 0.0 28.8 0.0
11/28/2019 17:00 0.00 36.0 56.4 29.28 3.50 12.50 0.00 0.0 5.5 0.0
11/28/2019 16:00 0.00 37.0 53.6 29.23 2.50 12.00 0.00 0.3 45.8 0.0
11/28/2019 15:00 0.00 40.0 50.2 29.17 2.75 12.75 0.00 0.0 29.5 0.0
11/28/2019 14:00 0.00 42.0 51.3 29.12 0.75 7.25 0.00 0.0 18.0 0.0
11/28/2019 13:00 0.00 41.0 61.8 29.09 1.50 7.75 0.00 0.0 0.5 0.0
11/28/2019 12:00 0.01 41.0 65.7 29.05 1.50 8.25 0.00 0.0 0.0 0.0
11/28/2019 11:00 0.00 40.0 71.3 29.02 2.25 8.50 0.00 0.0 0.0 0.0
11/28/2019 10:00 0.00 41.0 73.9 28.98 3.75 10.75 0.00 0.0 0.0 0.0
11/28/2019 09:00 0.00 39.0 81.5 28.94 1.50 7.25 0.00 0.0 0.0 0.0
11/28/2019 08:00 0.00 39.0 82.5 28.90 0.00 2.00 0.00 0.0 2.0 0.0
11/28/2019 07:00 0.00 38.0 82.0 28.87 0.00 1.75 0.00 0.0 1.5 0.0
11/28/2019 06:00 0.02 37.0 80.8 28.85 1.00 5.25 0.00 0.0 0.0 0.0
11/28/2019 05:00 0.07 37.0 80.3 28.84 4.50 11.00 0.00 0.0 0.0 0.0
11/28/2019 04:00 0.08 37.0 80.1 28.83 4.25 10.00 0.00 0.0 0.0 0.0
11/28/2019 03:00 0.01 38.0 77.9 28.83 4.75 12.25 0.00 0.0 0.0 0.0
11/28/2019 02:00 0.01 39.0 80.1 28.84 2.00 6.00 0.00 0.0 0.0 0.0
11/28/2019 01:00 0.01 39.0 80.8 28.84 0.25 4.00 0.00 0.0 0.0 0.0
11/28/2019 00:00 0.00 38.0 81.0 28.84 1.00 7.75 0.00 0.0 0.0 0.0
11/27/2019 23:00 0.11 38.0 82.6 28.88 1.00 6.25 0.00 0.0 0.8 0.0
11/27/2019 22:00 0.01 38.0 82.0 28.88 4.00 14.25 0.00 0.0 1.3 0.0
11/27/2019 21:00 0.06 38.0 82.3 28.93 3.25 11.50 0.00 0.0 0.0 0.0
11/27/2019 20:00 0.11 40.0 82.3 28.98 3.25 12.00 0.00 0.0 0.0 0.0
11/27/2019 19:00 0.06 41.0 80.3 29.01 4.25 13.25 0.00 0.0 4.8 0.0
11/27/2019 18:00 0.00 42.0 74.3 29.06 4.25 13.00 0.00 0.0 0.0 0.0
11/27/2019 17:00 0.00 43.0 68.9 29.14 3.75 11.75 0.00 0.0 0.0 0.0
11/27/2019 16:00 0.00 43.0 69.6 29.17 5.00 13.00 0.00 0.0 0.0 0.0
11/27/2019 15:00 0.00 45.0 63.6 29.22 2.25 10.00 0.00 0.0 0.0 0.0
11/27/2019 14:00 0.00 45.0 55.5 29.28 0.75 6.25 0.00 0.0 0.0 0.0
11/27/2019 13:00 0.00 45.0 55.7 29.32 2.25 9.00 0.00 0.0 0.0 0.0
11/27/2019 12:00 0.00 45.0 55.2 29.36 1.50 6.75 0.00 0.0 0.0 0.0
11/27/2019 11:00 0.00 40.0 73.7 29.38 0.25 2.50 0.00 0.0 0.0 0.0
11/27/2019 10:00 0.00 37.0 79.0 29.41 0.00 0.00 0.00 0.0 0.0 0.0
11/27/2019 09:00 0.00 35.0 81.1 29.43 0.00 0.00 0.00 0.0 0.0 0.0
11/27/2019 08:00 0.00 32.0 81.4 29.43 0.00 0.00 0.00 0.0 0.0 0.0
11/27/2019 07:00 0.00 30.0 81.8 29.43 0.00 0.00 0.00 0.0 0.0 0.0
11/27/2019 06:00 0.00 30.0 82.2 29.43 0.00 0.00 0.00 0.0 0.0 0.0
11/27/2019 05:00 0.00 30.0 82.3 29.42 0.00 0.00 0.00 0.0 0.0 0.0
11/27/2019 04:00 0.00 31.0 82.3 29.43 0.00 0.00 0.00 0.0 0.0 0.0
11/27/2019 03:00 0.00 31.0 82.3 29.42 0.00 0.00 0.00 0.0 0.0 0.0
11/27/2019 02:00 0.00 32.0 82.2 29.40 0.00 0.00 0.00 0.0 0.0 0.0
11/27/2019 01:00 0.00 32.0 81.4 29.39 0.00 0.00 0.00 0.0 0.0 0.0
11/27/2019 00:00 0.00 33.0 81.4 29.39 0.00 0.00 0.00 0.0 0.0 0.0
11/26/2019 23:00 0.00 34.0 81.3 29.37 0.00 0.00 0.00 0.0 0.0 0.0
11/26/2019 22:00 0.00 35.0 80.6 29.36 0.00 0.50 0.00 0.0 0.0 0.0
11/26/2019 21:00 0.00 36.0 79.8 29.35 0.00 0.75 0.00 0.0 0.0 0.0
11/26/2019 20:00 0.00 38.0 78.3 29.32 0.00 0.75 0.00 0.0 0.0 0.0
11/26/2019 19:00 0.00 40.0 76.3 29.30 0.00 0.00 0.00 0.0 5.3 0.0
11/26/2019 18:00 0.00 42.0 71.2 29.28 0.00 0.00 0.00 0.0 18.0 0.0
11/26/2019 17:00 0.00 45.0 66.4 29.26 0.00 0.00 0.00 0.8 51.8 0.0
11/26/2019 16:00 0.00 51.0 46.1 29.25 0.00 0.00 0.00 0.8 70.0 0.0
11/26/2019 15:00 0.00 55.0 32.2 29.24 0.00 0.00 0.00 0.3 24.0 0.0
11/26/2019 14:00 0.00 47.0 59.8 29.26 0.00 0.50 0.00 0.0 25.0 0.0
11/26/2019 13:00 0.00 43.0 69.7 29.28 0.00 0.50 0.00 0.0 8.8 0.0
11/26/2019 12:00 0.00 40.0 84.5 29.30 0.00 1.00 0.00 0.0 13.5 0.0
11/26/2019 11:00 0.00 37.0 84.6 29.32 0.00 0.00 0.00 0.0 8.0 0.0
11/26/2019 10:00 0.00 35.0 84.3 29.32 0.00 0.25 0.00 0.0 2.8 0.0
11/26/2019 09:00 0.00 32.0 83.7 29.30 0.00 0.50 0.00 0.0 0.0 0.0
11/26/2019 08:00 0.00 32.0 83.0 29.30 0.00 0.00 0.00 0.0 3.3 0.0
11/26/2019 07:00 0.00 32.0 82.1 29.29 0.00 0.00 0.00 0.0 3.8 0.0
11/26/2019 06:00 0.00 31.0 81.0 29.29 0.00 0.00 0.00 0.0 0.0 0.0
11/26/2019 05:00 0.00 31.0 80.9 29.27 0.00 0.00 0.00 0.0 0.0 0.0
11/26/2019 04:00 0.00 32.0 80.4 29.27 0.00 0.00 0.00 0.0 0.0 0.0
11/26/2019 03:00 0.00 32.0 79.6 29.27 0.00 0.00 0.00 0.0 0.0 0.0
11/26/2019 02:00 0.00 33.0 78.9 29.25 0.00 0.00 0.00 0.0 0.0 0.0
11/26/2019 01:00 0.00 35.0 77.5 29.25 0.00 0.00 0.00 0.0 0.0 0.0
11/26/2019 00:00 0.00 34.0 78.2 29.23 0.00 0.00 0.00 0.0 0.0 0.0
11/25/2019 23:00 0.00 35.0 76.7 29.23 0.00 0.00 0.00 0.0 0.0 0.0
11/25/2019 22:00 0.00 36.0 76.3 29.22 0.00 0.00 0.00 0.0 0.0 0.0
11/25/2019 21:00 0.00 36.0 75.0 29.20 0.00 0.00 0.00 0.0 0.0 0.0
11/25/2019 20:00 0.00 36.0 74.7 29.18 0.00 0.00 0.00 0.3 13.5 0.0
11/25/2019 19:00 0.00 39.0 66.9 29.16 0.00 2.25 0.00 0.3 31.8 0.0
11/25/2019 18:00 0.00 41.0 57.1 29.15 0.50 5.25 0.00 0.3 38.0 0.0
11/25/2019 17:00 0.00 43.0 51.5 29.12 1.75 9.50 0.00 0.5 47.3 0.0
11/25/2019 16:00 0.00 45.0 40.5 29.10 3.25 11.00 0.00 0.0 49.8 0.0
11/25/2019 15:00 0.00 49.0 29.3 29.07 4.75 14.50 0.00 0.5 47.0 0.0
11/25/2019 14:00 0.00 46.0 37.2 29.05 5.25 16.50 0.00 0.0 40.8 0.0
11/25/2019 13:00 0.00 45.0 44.7 29.04 6.25 18.75 0.00 0.0 37.3 0.0